Time;durP1;ratioP1;P1;durP2;ratioP2;P2;SDS_P1;SDS_P2;PMS_P1;PMS_P2;Temp;Humidity;BMP_temperature;BMP_pressure;BME280_temperature;BME280_humidity;BME280_pressure;Samples;Min_cycle;Max_cycle;Signal;HPM_P1;HPM_P2
2022/10/01 00:00:01;;;;;;;6.93;6.35;;;;;;;;;;5092480;28;20554;-79
2022/10/01 00:02:27;;;;;;;7.30;6.57;;;;;;;;;;5092698;28;20024;-79
2022/10/01 00:04:53;;;;;;;8.73;6.72;;;;;;;;;;5092684;28;20023;-79
2022/10/01 00:07:19;;;;;;;7.70;6.90;;;;;;;;;;5099105;28;20034;-79
2022/10/01 00:09:46;;;;;;;8.15;6.70;;;;;;;;;;5113064;28;20027;-79
2022/10/01 00:12:14;;;;;;;8.48;7.28;;;;;;;;;;5112717;28;20072;-79
2022/10/01 00:14:40;;;;;;;9.13;7.53;;;;;;;;;;5113033;28;20019;-79
2022/10/01 00:17:06;;;;;;;8.10;7.07;;;;;;;;;;5107318;28;20048;-79
2022/10/01 00:19:32;;;;;;;7.63;6.75;;;;;;;;;;5092549;28;20446;-79
2022/10/01 00:21:59;;;;;;;9.88;6.78;;;;;;;;;;5092297;28;20024;-79
2022/10/01 00:24:25;;;;;;;9.30;6.22;;;;;;;;;;5092362;28;20387;-78
2022/10/01 00:26:51;;;;;;;9.95;7.03;;;;;;;;;;5094578;28;20096;-79
2022/10/01 00:29:17;;;;;;;8.30;6.97;;;;;;;;;;5112608;28;20023;-79
2022/10/01 00:31:43;;;;;;;7.97;7.25;;;;;;;;;;5112739;28;20034;-79
2022/10/01 00:34:10;;;;;;;9.00;7.45;;;;;;;;;;5112567;28;20107;-79
2022/10/01 00:36:36;;;;;;;8.00;7.20;;;;;;;;;;5112429;28;20067;-79
2022/10/01 00:39:03;;;;;;;8.55;7.35;;;;;;;;;;5092618;28;20448;-79
2022/10/01 00:41:30;;;;;;;8.20;6.50;;;;;;;;;;5092222;28;20480;-79
2022/10/01 00:43:58;;;;;;;7.63;6.93;;;;;;;;;;5092337;28;20051;-79
2022/10/01 00:46:42;;;;;;;7.47;6.72;;;;;;;;;;5091980;28;20032;-78
2022/10/01 00:49:08;;;;;;;;;;;;;;;;;;5092432;28;20032;-79
2022/10/01 00:51:38;;;;;;;7.13;5.97;;;;;;;;;;5092257;28;19911;-79
2022/10/01 00:54:25;;;;;;;8.65;7.10;;;;;;;;;;5091982;28;20028;-79
2022/10/01 00:56:52;;;;;;;12.15;8.30;;;;;;;;;;5092743;28;20040;-78
2022/10/01 00:59:18;;;;;;;9.98;8.02;;;;;;;;;;5105165;28;20378;-78
2022/10/01 01:01:44;;;;;;;9.63;8.55;;;;;;;;;;5112338;28;20024;-79
2022/10/01 01:04:16;;;;;;;7.95;7.15;;;;;;;;;;5116438;28;20486;-79
2022/10/01 01:06:54;;;;;;;9.70;7.97;;;;;;;;;;5115912;28;20031;-79
2022/10/01 01:09:22;;;;;;;8.68;7.68;;;;;;;;;;5095631;28;20028;-79
2022/10/01 01:11:51;;;;;;;8.55;7.32;;;;;;;;;;5095922;28;20074;-79
2022/10/01 01:14:37;;;;;;;7.38;6.68;;;;;;;;;;5095781;28;20082;-79
2022/10/01 01:17:10;;;;;;;7.72;7.00;;;;;;;;;;5097639;28;20051;-79
2022/10/01 01:19:51;;;;;;;7.13;6.28;;;;;;;;;;5115838;28;20035;-79
2022/10/01 01:22:19;;;;;;;5.80;5.30;;;;;;;;;;5116021;28;20474;-79
2022/10/01 01:25:04;;;;;;;6.30;5.47;;;;;;;;;;5114731;28;20043;-79
2022/10/01 01:27:34;;;;;;;7.68;5.65;;;;;;;;;;5109303;28;20118;-80
2022/10/01 01:30:05;;;;;;;7.13;6.40;;;;;;;;;;5095670;28;20021;-79
2022/10/01 01:32:34;;;;;;;6.60;5.93;;;;;;;;;;5095446;28;20063;-79
2022/10/01 01:35:01;;;;;;;6.32;5.60;;;;;;;;;;5095452;28;20035;-79
2022/10/01 01:37:30;;;;;;;7.00;5.47;;;;;;;;;;5100309;28;20038;-79
2022/10/01 01:39:59;;;;;;;6.65;5.40;;;;;;;;;;5115873;28;20023;-79
2022/10/01 01:42:36;;;;;;;6.18;5.45;;;;;;;;;;5115602;28;20031;-79
2022/10/01 01:45:04;;;;;;;7.00;5.55;;;;;;;;;;5115798;28;20026;-79
2022/10/01 01:47:31;;;;;;;5.90;5.43;;;;;;;;;;5109141;28;20028;-79
2022/10/01 01:49:58;;;;;;;5.43;4.78;;;;;;;;;;5095153;28;20390;-79
2022/10/01 01:52:24;;;;;;;5.30;4.80;;;;;;;;;;5094889;28;20062;-79
2022/10/01 01:54:50;;;;;;;5.35;4.90;;;;;;;;;;5095052;28;20493;-79
2022/10/01 01:57:17;;;;;;;6.88;6.00;;;;;;;;;;5094851;28;20469;-79
2022/10/01 01:59:44;;;;;;;8.98;6.43;;;;;;;;;;5095082;28;20047;-79
2022/10/01 02:02:15;;;;;;;8.02;7.22;;;;;;;;;;5094859;28;20024;-79
2022/10/01 02:04:46;;;;;;;7.97;6.53;;;;;;;;;;5094987;28;20379;-79
2022/10/01 02:07:31;;;;;;;9.77;7.35;;;;;;;;;;5098383;28;20031;-79
2022/10/01 02:09:57;;;;;;;6.82;6.20;;;;;;;;;;5114718;28;20023;-79
2022/10/01 02:12:41;;;;;;;7.63;6.63;;;;;;;;;;5114869;28;20028;-79
2022/10/01 02:15:07;;;;;;;8.20;6.68;;;;;;;;;;5114804;28;20110;-78
2022/10/01 02:17:42;;;;;;;8.23;6.30;;;;;;;;;;5107903;28;20044;-79
2022/10/01 02:20:17;;;;;;;9.52;7.07;;;;;;;;;;5094559;28;20028;-78
2022/10/01 02:22:51;;;;;;;7.22;6.57;;;;;;;;;;5094446;28;20024;-78
2022/10/01 02:25:17;;;;;;;;;;;;;;;;;;5094865;28;20031;-78
2022/10/01 02:28:00;;;;;;;10.05;8.10;;;;;;;;;;5101725;28;20378;-78
2022/10/01 02:30:27;;;;;;;8.50;7.47;;;;;;;;;;5114560;28;20035;-78
2022/10/01 02:32:55;;;;;;;8.82;7.25;;;;;;;;;;5114733;28;20149;-78
2022/10/01 02:35:22;;;;;;;10.20;7.13;;;;;;;;;;5114390;28;20019;-78
2022/10/01 02:37:50;;;;;;;8.52;6.68;;;;;;;;;;5105877;28;20040;-79
2022/10/01 02:40:18;;;;;;;8.50;7.25;;;;;;;;;;5094096;28;20032;-79
2022/10/01 02:42:47;;;;;;;8.15;6.97;;;;;;;;;;5094218;28;20028;-79
2022/10/01 02:45:15;;;;;;;7.68;6.90;;;;;;;;;;5093921;28;20031;-79
2022/10/01 02:47:44;;;;;;;8.40;7.35;;;;;;;;;;5100973;28;20362;-79
2022/10/01 02:50:11;;;;;;;8.75;7.38;;;;;;;;;;5113885;28;20040;-78
2022/10/01 02:52:37;;;;;;;8.40;7.63;;;;;;;;;;5114343;28;20374;-80
2022/10/01 02:55:07;;;;;;;8.73;7.35;;;;;;;;;;5114292;28;20096;-78
2022/10/01 02:57:33;;;;;;;10.20;7.85;;;;;;;;;;5107945;28;20036;-79
2022/10/01 03:00:00;;;;;;;7.50;6.80;;;;;;;;;;5093747;28;20500;-79
2022/10/01 03:02:27;;;;;;;7.18;6.38;;;;;;;;;;5093466;28;20394;-79
2022/10/01 03:04:54;;;;;;;8.63;7.82;;;;;;;;;;5093787;28;20024;-79
2022/10/01 03:07:20;;;;;;;9.75;8.25;;;;;;;;;;5096814;28;20035;-79
2022/10/01 03:09:48;;;;;;;8.00;7.28;;;;;;;;;;5113293;28;20065;-79
2022/10/01 03:12:15;;;;;;;8.43;7.53;;;;;;;;;;5112515;28;20024;-79
2022/10/01 03:14:41;;;;;;;8.95;7.18;;;;;;;;;;5113921;28;20038;-79
2022/10/01 03:17:07;;;;;;;7.47;6.78;;;;;;;;;;5111451;28;20043;-79
2022/10/01 03:19:33;;;;;;;8.15;6.90;;;;;;;;;;5093299;28;20028;-79
2022/10/01 03:22:00;;;;;;;7.63;6.82;;;;;;;;;;5092738;28;20028;-79
2022/10/01 03:24:26;;;;;;;7.90;6.72;;;;;;;;;;5091868;28;20437;-79
2022/10/01 03:26:52;;;;;;;8.10;6.45;;;;;;;;;;5105742;28;20029;-79
2022/10/01 03:29:18;;;;;;;8.32;7.38;;;;;;;;;;5113433;28;20028;-79
2022/10/01 03:31:44;;;;;;;7.80;6.80;;;;;;;;;;5113651;28;20032;-79
2022/10/01 03:34:12;;;;;;;9.90;6.85;;;;;;;;;;5113548;28;20390;-79
2022/10/01 03:36:38;;;;;;;7.55;6.75;;;;;;;;;;5102555;28;20059;-79
2022/10/01 03:39:04;;;;;;;9.10;7.55;;;;;;;;;;5093202;28;20035;-78
2022/10/01 03:41:30;;;;;;;8.95;8.05;;;;;;;;;;5092890;28;20027;-77
2022/10/01 03:43:56;;;;;;;11.60;8.45;;;;;;;;;;5092962;28;20039;-78
2022/10/01 03:46:22;;;;;;;9.00;8.10;;;;;;;;;;5099968;28;20490;-79
2022/10/01 03:48:48;;;;;;;8.93;8.02;;;;;;;;;;5113330;28;20080;-79
2022/10/01 03:51:15;;;;;;;8.45;7.55;;;;;;;;;;5113405;28;20024;-78
2022/10/01 03:53:41;;;;;;;9.63;7.25;;;;;;;;;;5113025;28;20028;-79
2022/10/01 03:56:07;;;;;;;8.95;8.05;;;;;;;;;;5107197;28;20035;-79
2022/10/01 03:58:33;;;;;;;9.05;8.18;;;;;;;;;;5092595;28;20031;-79
2022/10/01 04:00:59;;;;;;;8.43;7.63;;;;;;;;;;5092646;28;20027;-79
2022/10/01 04:03:25;;;;;;;9.65;7.68;;;;;;;;;;5093597;28;20043;-79
2022/10/01 04:05:51;;;;;;;9.75;8.43;;;;;;;;;;5092977;28;20090;-79
2022/10/01 04:08:17;;;;;;;13.50;8.00;;;;;;;;;;5092564;28;20103;-78
2022/10/01 04:10:43;;;;;;;11.27;8.70;;;;;;;;;;5092366;28;20539;-79
2022/10/01 04:13:10;;;;;;;9.10;7.88;;;;;;;;;;5092629;28;20114;-78
2022/10/01 04:15:36;;;;;;;9.38;8.45;;;;;;;;;;5092000;28;20723;-78
2022/10/01 04:18:04;;;;;;;7.70;6.90;;;;;;;;;;5092593;28;20036;-78
2022/10/01 04:20:31;;;;;;;19.77;16.33;;;;;;;;;;5092485;28;20024;-79
2022/10/01 04:22:57;;;;;;;13.23;11.57;;;;;;;;;;5092485;28;20028;-79
2022/10/01 04:25:23;;;;;;;12.18;10.60;;;;;;;;;;5092441;28;20460;-78
2022/10/01 04:28:03;;;;;;;8.70;7.65;;;;;;;;;;5092182;28;20031;-78
2022/10/01 04:30:30;;;;;;;12.60;10.98;;;;;;;;;;5092131;28;20060;-78
2022/10/01 04:32:57;;;;;;;10.07;7.63;;;;;;;;;;5094563;28;20024;-78
2022/10/01 04:35:23;;;;;;;7.82;6.85;;;;;;;;;;5096419;28;20028;-78
2022/10/01 04:38:15;;;;;;;7.95;6.45;;;;;;;;;;5096420;28;20036;-78
2022/10/01 04:40:41;;;;;;;8.07;7.22;;;;;;;;;;5093714;28;20136;-79
2022/10/01 04:43:08;;;;;;;9.80;6.13;;;;;;;;;;5096189;28;20385;-79
2022/10/01 04:45:35;;;;;;;8.07;6.10;;;;;;;;;;5096311;28;20073;-78
2022/10/01 04:48:01;;;;;;;7.65;6.55;;;;;;;;;;5096368;28;20020;-79
2022/10/01 04:50:27;;;;;;;7.07;6.38;;;;;;;;;;5096214;28;20024;-78
2022/10/01 04:52:54;;;;;;;10.45;6.63;;;;;;;;;;5096203;28;20028;-78
2022/10/01 04:55:21;;;;;;;8.18;7.25;;;;;;;;;;5095981;28;20036;-78
2022/10/01 04:57:47;;;;;;;7.90;6.47;;;;;;;;;;5096026;28;20085;-78
2022/10/01 05:00:15;;;;;;;9.30;7.13;;;;;;;;;;5096016;28;20069;-78
2022/10/01 05:02:44;;;;;;;7.82;6.30;;;;;;;;;;5096043;28;20016;-79
2022/10/01 05:05:10;;;;;;;9.15;7.38;;;;;;;;;;5095807;28;20024;-79
2022/10/01 05:07:36;;;;;;;8.60;6.40;;;;;;;;;;5095847;28;20391;-78
2022/10/01 05:10:03;;;;;;;9.23;7.28;;;;;;;;;;5095930;28;20093;-79
2022/10/01 05:12:29;;;;;;;9.82;8.82;;;;;;;;;;5095723;28;20535;-78
2022/10/01 05:14:55;;;;;;;9.88;8.50;;;;;;;;;;5095813;28;20027;-78
2022/10/01 05:17:22;;;;;;;8.45;6.88;;;;;;;;;;5095413;28;20110;-78
2022/10/01 05:19:48;;;;;;;8.32;7.40;;;;;;;;;;5095699;28;20356;-78
2022/10/01 05:22:15;;;;;;;8.00;7.20;;;;;;;;;;5095430;28;20024;-78
2022/10/01 05:24:44;;;;;;;10.82;7.07;;;;;;;;;;5095569;28;20024;-78
2022/10/01 05:27:12;;;;;;;8.32;7.57;;;;;;;;;;5095355;28;20052;-77
2022/10/01 05:29:39;;;;;;;12.45;10.25;;;;;;;;;;5095402;28;20028;-78
2022/10/01 05:32:05;;;;;;;12.98;10.77;;;;;;;;;;5095414;28;20096;-78
2022/10/01 05:34:31;;;;;;;9.98;7.85;;;;;;;;;;5096411;28;20550;-78
2022/10/01 05:36:58;;;;;;;10.60;7.30;;;;;;;;;;5115597;28;20035;-78
2022/10/01 05:39:24;;;;;;;10.65;8.48;;;;;;;;;;5115609;28;20115;-78
2022/10/01 05:41:50;;;;;;;7.78;7.05;;;;;;;;;;5115535;28;20030;-78
2022/10/01 05:44:16;;;;;;;14.18;12.70;;;;;;;;;;5114711;28;20435;-79
2022/10/01 05:46:42;;;;;;;14.40;12.85;;;;;;;;;;5115657;28;20066;-78
2022/10/01 05:49:09;;;;;;;15.05;13.48;;;;;;;;;;5115408;28;20038;-78
2022/10/01 05:51:35;;;;;;;42.83;34.35;;;;;;;;;;5115224;28;20031;-78
2022/10/01 05:54:03;;;;;;;15.13;11.85;;;;;;;;;;5115377;28;20394;-78
2022/10/01 05:56:29;;;;;;;15.82;14.30;;;;;;;;;;5115369;28;20060;-78
2022/10/01 05:58:55;;;;;;;62.67;55.00;;;;;;;;;;5115277;28;20037;-78
2022/10/01 06:01:21;;;;;;;28.15;24.63;;;;;;;;;;5114971;28;20038;-78
2022/10/01 06:03:51;;;;;;;22.85;20.33;;;;;;;;;;5115037;28;20027;-78
2022/10/01 06:06:24;;;;;;;49.80;43.83;;;;;;;;;;5113677;28;20450;-78
2022/10/01 06:08:50;;;;;;;16.17;14.15;;;;;;;;;;5114314;28;20031;-78
2022/10/01 06:11:17;;;;;;;12.85;11.13;;;;;;;;;;5114208;28;20016;-78
2022/10/01 06:13:45;;;;;;;13.77;10.25;;;;;;;;;;5114158;28;20093;-79
2022/10/01 06:16:12;;;;;;;20.52;14.95;;;;;;;;;;5113623;28;20092;-79
2022/10/01 06:18:38;;;;;;;17.60;14.70;;;;;;;;;;5114388;28;20107;-81
2022/10/01 06:21:04;;;;;;;22.48;18.45;;;;;;;;;;5097882;28;20443;-81
2022/10/01 06:23:30;;;;;;;18.67;15.30;;;;;;;;;;5108089;28;20474;-81
2022/10/01 06:25:58;;;;;;;16.80;15.02;;;;;;;;;;5109109;28;20024;-80
2022/10/01 06:28:24;;;;;;;18.88;16.88;;;;;;;;;;5113818;28;20020;-79
2022/10/01 06:30:50;;;;;;;18.95;15.90;;;;;;;;;;5114470;28;20038;-79
2022/10/01 06:33:17;;;;;;;16.48;14.77;;;;;;;;;;5115024;28;20106;-79
2022/10/01 06:35:48;;;;;;;17.50;14.77;;;;;;;;;;5114453;28;20034;-80
2022/10/01 06:38:15;;;;;;;15.10;13.55;;;;;;;;;;5114817;28;20030;-80
2022/10/01 06:40:41;;;;;;;14.40;12.20;;;;;;;;;;5114643;28;20028;-81
2022/10/01 06:43:07;;;;;;;14.32;12.20;;;;;;;;;;5113354;28;20024;-80
2022/10/01 06:45:38;;;;;;;11.48;9.45;;;;;;;;;;5111411;28;20031;-80
2022/10/01 06:48:04;;;;;;;13.57;12.18;;;;;;;;;;5113484;28;20027;-80
2022/10/01 06:50:31;;;;;;;11.93;10.70;;;;;;;;;;5113539;28;20024;-79
2022/10/01 06:52:57;;;;;;;12.02;9.48;;;;;;;;;;5113661;28;20111;-80
2022/10/01 06:55:25;;;;;;;10.48;9.45;;;;;;;;;;5112500;28;20024;-80
2022/10/01 06:58:05;;;;;;;11.52;10.40;;;;;;;;;;5110014;28;20031;-80
2022/10/01 07:00:32;;;;;;;11.50;10.20;;;;;;;;;;5110801;28;20024;-80
2022/10/01 07:02:59;;;;;;;13.80;11.32;;;;;;;;;;5112033;28;20474;-80
2022/10/01 07:05:26;;;;;;;11.07;9.98;;;;;;;;;;5113335;28;20080;-80
2022/10/01 07:07:52;;;;;;;12.55;11.35;;;;;;;;;;5113263;28;20028;-80
2022/10/01 07:10:19;;;;;;;11.38;10.18;;;;;;;;;;5113297;28;20023;-80
2022/10/01 07:12:47;;;;;;;12.00;9.85;;;;;;;;;;5113271;28;20023;-80
2022/10/01 07:15:14;;;;;;;11.88;10.70;;;;;;;;;;5111500;28;20033;-78
2022/10/01 07:17:50;;;;;;;15.07;11.95;;;;;;;;;;5113031;28;20032;-78
2022/10/01 07:20:17;;;;;;;15.30;13.65;;;;;;;;;;5111079;28;20076;-78
2022/10/01 07:22:43;;;;;;;15.32;13.80;;;;;;;;;;5112618;28;20022;-77
2022/10/01 07:25:10;;;;;;;18.15;14.20;;;;;;;;;;5112663;28;20024;-77
2022/10/01 07:27:36;;;;;;;14.32;12.95;;;;;;;;;;5112771;28;20069;-77
2022/10/01 07:30:03;;;;;;;18.05;13.63;;;;;;;;;;5112732;28;20143;-77
2022/10/01 07:32:30;;;;;;;16.02;14.30;;;;;;;;;;5112720;28;20016;-77
2022/10/01 07:34:57;;;;;;;17.65;14.82;;;;;;;;;;5112473;28;20050;-78
2022/10/01 07:37:23;;;;;;;14.63;12.63;;;;;;;;;;5112372;28;20032;-77
2022/10/01 07:39:49;;;;;;;14.18;12.68;;;;;;;;;;5112357;28;20027;-79
2022/10/01 07:42:15;;;;;;;15.90;14.05;;;;;;;;;;5112543;28;20063;-80
2022/10/01 07:44:42;;;;;;;15.15;12.60;;;;;;;;;;5111465;28;20557;-80
2022/10/01 07:47:08;;;;;;;15.70;13.30;;;;;;;;;;5112537;28;20026;-79
2022/10/01 07:49:34;;;;;;;18.67;16.73;;;;;;;;;;5112375;28;20099;-80
2022/10/01 07:52:00;;;;;;;19.42;17.10;;;;;;;;;;5111850;28;20434;-79
2022/10/01 07:54:26;;;;;;;18.77;16.85;;;;;;;;;;5112411;28;20024;-80
2022/10/01 07:56:54;;;;;;;23.40;21.10;;;;;;;;;;5112149;28;20043;-82
2022/10/01 07:59:25;;;;;;;19.27;16.60;;;;;;;;;;5112163;28;20051;-81
2022/10/01 08:01:51;;;;;;;28.60;25.80;;;;;;;;;;5113024;28;20523;-82
2022/10/01 08:07:03;;;;;;;22.67;20.27;;;;;;;;;;5092688;28;20062;-82
2022/10/01 08:09:29;;;;;;;30.02;24.30;;;;;;;;;;5100600;27;20141;-82
2022/10/01 08:11:55;;;;;;;26.60;22.50;;;;;;;;;;5110673;27;20049;-82
2022/10/01 08:14:21;;;;;;;25.33;21.67;;;;;;;;;;5111107;28;20028;-82
2022/10/01 08:16:48;;;;;;;48.58;38.60;;;;;;;;;;5110078;28;20126;-82
2022/10/01 08:19:15;;;;;;;40.70;32.88;;;;;;;;;;5107985;28;20126;-81
2022/10/01 08:21:42;;;;;;;45.75;37.38;;;;;;;;;;5110381;28;20035;-81
2022/10/01 08:24:08;;;;;;;27.50;23.33;;;;;;;;;;5112210;28;20065;-82
2022/10/01 08:26:34;;;;;;;23.67;19.75;;;;;;;;;;5112119;28;20020;-81
2022/10/01 08:29:01;;;;;;;15.48;13.85;;;;;;;;;;5111938;28;20377;-81
2022/10/01 08:31:27;;;;;;;18.52;15.52;;;;;;;;;;5112082;28;20020;-81
2022/10/01 08:33:53;;;;;;;23.73;19.50;;;;;;;;;;5111621;28;20034;-80
2022/10/01 08:36:19;;;;;;;20.48;16.88;;;;;;;;;;5112148;28;20436;-80
2022/10/01 08:38:46;;;;;;;21.60;19.15;;;;;;;;;;5112129;28;20032;-80
2022/10/01 08:41:22;;;;;;;27.08;24.38;;;;;;;;;;5112635;28;20386;-81
2022/10/01 08:43:50;;;;;;;26.88;24.10;;;;;;;;;;5112409;28;20473;-80
2022/10/01 08:46:17;;;;;;;27.35;24.02;;;;;;;;;;5111349;28;20374;-82
2022/10/01 08:49:11;;;;;;;22.38;19.98;;;;;;;;;;5112339;28;20031;-81
2022/10/01 08:51:39;;;;;;;22.63;20.23;;;;;;;;;;5112295;28;20028;-83
2022/10/01 08:54:18;;;;;;;24.90;20.92;;;;;;;;;;5111394;28;20020;-81
2022/10/01 08:56:46;;;;;;;21.17;17.85;;;;;;;;;;5112401;28;20491;-82
2022/10/01 08:59:30;;;;;;;19.48;15.70;;;;;;;;;;5111988;28;20020;-81
2022/10/01 09:01:58;;;;;;;23.80;18.58;;;;;;;;;;5112178;28;20024;-78
2022/10/01 09:04:24;;;;;;;26.20;20.20;;;;;;;;;;5112363;28;20067;-79
2022/10/01 09:06:51;;;;;;;26.17;22.60;;;;;;;;;;5112221;28;20016;-82
2022/10/01 09:09:23;;;;;;;23.77;18.23;;;;;;;;;;5112267;28;20031;-81
2022/10/01 09:12:08;;;;;;;24.70;21.27;;;;;;;;;;5111955;28;20031;-78
2022/10/01 09:14:53;;;;;;;24.05;19.38;;;;;;;;;;5111015;28;20028;-79
2022/10/01 09:17:22;;;;;;;24.13;20.95;;;;;;;;;;5112059;28;20063;-80
2022/10/01 09:19:58;;;;;;;25.77;21.17;;;;;;;;;;5114013;28;20031;-80
2022/10/01 09:22:43;;;;;;;23.40;20.25;;;;;;;;;;5116019;28;20080;-82
2022/10/01 09:25:09;;;;;;;26.75;21.63;;;;;;;;;;5116273;28;20031;-88
2022/10/01 09:27:37;;;;;;;21.40;16.48;;;;;;;;;;5116401;28;20023;-81
2022/10/01 09:30:23;;;;;;;19.23;16.15;;;;;;;;;;5114341;28;20028;-82
2022/10/01 09:32:57;;;;;;;18.35;16.40;;;;;;;;;;5115755;28;20059;-82
2022/10/01 09:35:24;;;;;;;;;;;;;;;;;;5116330;28;20024;-80
2022/10/01 09:38:06;;;;;;;28.90;22.42;;;;;;;;;;5114227;28;20378;-81
2022/10/01 09:40:38;;;;;;;18.60;16.60;;;;;;;;;;5115500;28;20024;-83
2022/10/01 09:43:08;;;;;;;20.58;17.33;;;;;;;;;;5115577;28;20019;-80
2022/10/01 09:45:34;;;;;;;29.25;21.42;;;;;;;;;;5115474;28;20099;-80
2022/10/01 09:48:11;;;;;;;24.85;21.50;;;;;;;;;;5115572;28;20027;-81
2022/10/01 09:50:42;;;;;;;28.58;22.52;;;;;;;;;;5115541;28;20486;-81
2022/10/01 09:53:13;;;;;;;20.58;18.48;;;;;;;;;;5113808;28;20421;-80
2022/10/01 09:55:41;;;;;;;20.60;18.52;;;;;;;;;;5115465;28;20109;-81
2022/10/01 09:58:26;;;;;;;34.00;30.38;;;;;;;;;;5114927;28;20068;-81
2022/10/01 10:00:53;;;;;;;25.05;20.88;;;;;;;;;;5115058;28;20106;-81
2022/10/01 10:03:37;;;;;;;17.30;15.50;;;;;;;;;;5115105;28;20076;-81
2022/10/01 10:06:05;;;;;;;14.98;13.20;;;;;;;;;;5115230;28;20103;-82
2022/10/01 10:08:36;;;;;;;13.70;11.70;;;;;;;;;;5115185;28;20027;-81
2022/10/01 10:11:04;;;;;;;12.65;11.32;;;;;;;;;;5115048;28;20023;-80
2022/10/01 10:13:37;;;;;;;11.98;10.90;;;;;;;;;;5115084;28;20024;-82
2022/10/01 10:16:09;;;;;;;14.00;12.57;;;;;;;;;;5114644;28;20045;-81
2022/10/01 10:18:37;;;;;;;12.90;10.30;;;;;;;;;;5114924;28;20059;-80
2022/10/01 10:21:13;;;;;;;10.82;9.73;;;;;;;;;;5114875;28;20034;-81
2022/10/01 10:23:52;;;;;;;12.73;10.23;;;;;;;;;;5113809;28;20026;-81
2022/10/01 10:26:21;;;;;;;11.60;10.43;;;;;;;;;;5114701;28;20031;-81
2022/10/01 10:28:48;;;;;;;11.45;10.35;;;;;;;;;;5114836;28;20474;-81
2022/10/01 10:31:24;;;;;;;10.48;9.38;;;;;;;;;;5114234;28;20024;-80
2022/10/01 10:33:52;;;;;;;12.23;10.13;;;;;;;;;;5114700;28;20099;-81
2022/10/01 10:36:19;;;;;;;10.65;9.60;;;;;;;;;;5114662;28;20031;-81
2022/10/01 10:39:04;;;;;;;12.40;11.10;;;;;;;;;;5114749;28;20020;-81
2022/10/01 10:41:31;;;;;;;10.80;9.38;;;;;;;;;;5114682;28;20029;-81
2022/10/01 10:44:20;;;;;;;12.50;9.70;;;;;;;;;;5114363;28;20024;-81
2022/10/01 10:46:47;;;;;;;10.98;9.80;;;;;;;;;;5114527;28;20355;-81
2022/10/01 10:49:36;;;;;;;9.63;8.00;;;;;;;;;;5114400;28;20080;-81
2022/10/01 10:52:17;;;;;;;10.52;9.13;;;;;;;;;;5100316;28;20089;-81
2022/10/01 10:54:46;;;;;;;8.85;7.38;;;;;;;;;;5114401;28;20031;-80
2022/10/01 10:57:28;;;;;;;9.48;8.50;;;;;;;;;;5114054;28;20050;-82
2022/10/01 11:00:28;;;;;;;8.48;7.57;;;;;;;;;;5112759;28;20502;-80
2022/10/01 11:03:03;;;;;;;15.07;12.90;;;;;;;;;;5092326;28;20042;-80
2022/10/01 11:05:33;;;;;;;7.95;7.15;;;;;;;;;;5112899;28;20027;-80
2022/10/01 11:08:02;;;;;;;7.47;6.40;;;;;;;;;;5112384;28;20039;-80
2022/10/01 11:10:40;;;;;;;7.75;6.55;;;;;;;;;;5112678;28;20550;-80
2022/10/01 11:13:07;;;;;;;8.75;6.72;;;;;;;;;;5113729;28;20027;-82
2022/10/01 11:15:38;;;;;;;6.55;5.82;;;;;;;;;;5113857;28;20426;-81
2022/10/01 11:18:23;;;;;;;7.60;5.43;;;;;;;;;;5111750;28;20558;-80
2022/10/01 11:21:03;;;;;;;7.43;5.35;;;;;;;;;;5112180;28;20032;-80
2022/10/01 11:23:33;;;;;;;6.75;4.78;;;;;;;;;;5113684;28;20028;-80
2022/10/01 11:26:01;;;;;;;11.23;7.43;;;;;;;;;;5113747;28;20028;-80
2022/10/01 11:28:46;;;;;;;12.02;8.55;;;;;;;;;;5113694;28;20439;-80
2022/10/01 11:31:15;;;;;;;10.20;7.75;;;;;;;;;;5113569;28;20020;-81
2022/10/01 11:33:47;;;;;;;7.13;6.22;;;;;;;;;;5113766;28;20084;-80
2022/10/01 11:36:25;;;;;;;7.32;5.75;;;;;;;;;;5113345;28;20500;-80
2022/10/01 11:38:51;;;;;;;7.53;5.82;;;;;;;;;;5112153;28;20027;-81
2022/10/01 11:41:26;;;;;;;6.85;6.00;;;;;;;;;;5112925;28;20076;-80
2022/10/01 11:44:11;;;;;;;8.10;6.20;;;;;;;;;;5113160;28;20073;-80
2022/10/01 11:46:48;;;;;;;9.75;7.35;;;;;;;;;;5113286;28;20023;-81
2022/10/01 11:49:33;;;;;;;8.55;5.55;;;;;;;;;;5113269;28;20476;-80
2022/10/01 11:51:59;;;;;;;;;;;;;;;;;;5112497;28;20486;-81
2022/10/01 11:54:27;;;;;;;3.58;3.28;;;;;;;;;;5113084;28;19918;-81
2022/10/01 11:59:53;;;;;;;7.00;3.42;;;;;;;;;;5113204;28;20082;-81
2022/10/01 12:02:21;;;;;;;4.43;3.17;;;;;;;;;;5113153;28;20035;-82
2022/10/01 12:05:02;;;;;;;5.15;3.00;;;;;;;;;;5113067;28;20102;-82
2022/10/01 12:07:48;;;;;;;5.32;2.95;;;;;;;;;;5111977;28;20016;-82
2022/10/01 12:10:33;;;;;;;4.28;3.38;;;;;;;;;;5113123;28;20016;-80
2022/10/01 12:13:21;;;;;;;8.98;7.20;;;;;;;;;;5113118;28;20023;-80
2022/10/01 12:15:53;;;;;;;4.65;2.83;;;;;;;;;;5112911;28;20046;-80
2022/10/01 12:18:38;;;;;;;5.07;2.80;;;;;;;;;;5112953;28;20036;-81
2022/10/01 12:21:07;;;;;;;4.15;1.40;;;;;;;;;;5112973;28;20036;-80
2022/10/01 12:23:52;;;;;;;4.32;1.65;;;;;;;;;;5112905;28;20057;-81
2022/10/01 12:26:21;;;;;;;5.28;2.75;;;;;;;;;;5112823;28;20015;-81
2022/10/01 12:28:53;;;;;;;4.68;2.80;;;;;;;;;;5112927;28;20024;-80
2022/10/01 12:31:25;;;;;;;6.30;2.33;;;;;;;;;;5112548;28;20019;-80
2022/10/01 12:34:10;;;;;;;2.58;1.58;;;;;;;;;;5112894;28;20099;-81
2022/10/01 12:36:46;;;;;;;3.22;1.90;;;;;;;;;;5112836;28;20039;-81
2022/10/01 12:39:19;;;;;;;1.67;1.33;;;;;;;;;;5112988;28;20386;-80
2022/10/01 12:41:50;;;;;;;2.50;1.30;;;;;;;;;;5112502;28;20106;-81
2022/10/01 12:44:16;;;;;;;3.50;1.70;;;;;;;;;;5112696;28;20031;-83
2022/10/01 12:46:46;;;;;;;3.53;1.13;;;;;;;;;;5112571;28;20038;-82
2022/10/01 12:49:30;;;;;;;3.17;1.48;;;;;;;;;;5111365;28;20028;-84
2022/10/01 12:51:56;;;;;;;4.20;2.70;;;;;;;;;;5112637;28;20035;-83
2022/10/01 12:54:25;;;;;;;3.90;2.08;;;;;;;;;;5115112;28;20023;-82
2022/10/01 12:57:27;;;;;;;2.78;1.70;;;;;;;;;;5116651;28;20077;-82
2022/10/01 13:00:12;;;;;;;4.38;2.08;;;;;;;;;;5017241;28;20029;-83
2022/10/01 13:02:40;;;;;;;;;;;;;;;;;;5111262;28;20050;-80
2022/10/01 13:05:06;;;;;;;9.77;7.35;;;;;;;;;;5116707;27;19908;-80
2022/10/01 13:07:45;;;;;;;4.40;1.40;;;;;;;;;;5115347;28;20026;-80
2022/10/01 13:10:17;;;;;;;1.83;1.20;;;;;;;;;;5116509;27;20073;-80
2022/10/01 13:13:05;;;;;;;2.47;1.27;;;;;;;;;;5116248;28;20024;-80
2022/10/01 13:15:37;;;;;;;3.67;1.40;;;;;;;;;;5115986;28;20093;-80
2022/10/01 13:18:15;;;;;;;2.25;1.38;;;;;;;;;;5116174;28;20040;-80
2022/10/01 13:21:00;;;;;;;2.38;1.33;;;;;;;;;;5116341;28;20088;-80
2022/10/01 13:23:26;;;;;;;2.50;1.50;;;;;;;;;;5114869;28;20542;-80
2022/10/01 13:26:04;;;;;;;3.75;1.98;;;;;;;;;;5116041;28;20474;-81
2022/10/01 13:28:40;;;;;;;12.55;6.78;;;;;;;;;;5116099;28;20047;-81
2022/10/01 13:31:11;;;;;;;5.68;2.10;;;;;;;;;;5116072;28;20042;-80
2022/10/01 13:33:37;;;;;;;9.40;4.47;;;;;;;;;;5115822;28;20054;-81
2022/10/01 13:36:07;;;;;;;6.43;2.00;;;;;;;;;;5115918;28;20023;-80
2022/10/01 13:38:45;;;;;;;4.03;1.20;;;;;;;;;;5115660;28;20039;-81
2022/10/01 13:41:16;;;;;;;2.47;1.65;;;;;;;;;;5115800;28;20062;-80
2022/10/01 13:44:01;;;;;;;2.72;1.38;;;;;;;;;;5115900;28;20815;-80
2022/10/01 13:46:32;;;;;;;7.22;5.35;;;;;;;;;;5115642;28;20131;-80
2022/10/01 13:49:06;;;;;;;7.07;4.20;;;;;;;;;;5115539;28;20024;-81
2022/10/01 13:51:36;;;;;;;11.48;9.75;;;;;;;;;;5115757;28;20019;-81
2022/10/01 13:54:04;;;;;;;4.63;3.03;;;;;;;;;;5114145;28;20031;-81
2022/10/01 13:56:35;;;;;;;4.00;1.70;;;;;;;;;;5115464;28;20024;-80
2022/10/01 13:59:02;;;;;;;4.22;1.98;;;;;;;;;;5115512;28;20031;-81
2022/10/01 14:01:30;;;;;;;4.07;1.55;;;;;;;;;;5115448;28;20035;-80
2022/10/01 14:03:56;;;;;;;2.63;2.03;;;;;;;;;;5115237;28;20106;-80
2022/10/01 14:06:22;;;;;;;4.50;2.00;;;;;;;;;;5114706;28;20023;-80
2022/10/01 14:08:48;;;;;;;2.70;2.20;;;;;;;;;;5113975;28;20024;-81
2022/10/01 14:17:09;;;;;;;4.63;1.90;;;;;;;;;;5114575;28;20054;-80
2022/10/01 14:19:35;;;;;;;5.65;2.90;;;;;;;;;;5114937;28;20028;-81
2022/10/01 14:22:20;;;;;;;5.50;2.85;;;;;;;;;;5114826;28;20039;-82
2022/10/01 14:25:05;;;;;;;4.63;1.60;;;;;;;;;;5114928;28;20028;-81
2022/10/01 14:27:49;;;;;;;4.10;1.83;;;;;;;;;;5114674;28;20084;-81
2022/10/01 14:30:18;;;;;;;4.63;2.40;;;;;;;;;;5114812;28;20088;-81
2022/10/01 14:32:53;;;;;;;3.78;2.80;;;;;;;;;;5114925;28;20050;-81
2022/10/01 14:35:19;;;;;;;3.90;2.20;;;;;;;;;;5114514;28;20106;-79
2022/10/01 14:37:46;;;;;;;4.30;2.10;;;;;;;;;;5114795;28;20031;-81
2022/10/01 14:40:12;;;;;;;3.30;3.00;;;;;;;;;;5114428;28;20028;-80
2022/10/01 14:42:38;;;;;;;6.65;3.22;;;;;;;;;;5114473;28;20045;-80
2022/10/01 14:45:14;;;;;;;3.20;2.28;;;;;;;;;;5114550;28;20039;-79
2022/10/01 14:47:40;;;;;;;3.88;2.22;;;;;;;;;;5114647;28;20032;-81
2022/10/01 14:50:24;;;;;;;5.05;2.17;;;;;;;;;;5114351;28;20032;-81
2022/10/01 14:52:53;;;;;;;;;;;;;;;;;;5114751;28;20024;-80
2022/10/01 14:55:21;;;;;;;3.80;2.30;;;;;;;;;;5114330;28;19915;-80
2022/10/01 14:57:49;;;;;;;4.60;2.58;;;;;;;;;;5114161;28;20381;-81
2022/10/01 15:00:16;;;;;;;3.35;1.88;;;;;;;;;;5114382;28;20031;-80
2022/10/01 15:02:50;;;;;;;5.68;2.13;;;;;;;;;;5114136;28;20561;-81
2022/10/01 15:05:27;;;;;;;4.00;2.30;;;;;;;;;;5114316;28;20609;-81